createdAt,value
2022-12-11T00:02:05.807Z,3.30
2022-12-11T00:04:32.614Z,5.13
2022-12-11T00:06:59.327Z,3.22
2022-12-11T00:09:27.786Z,3.53
2022-12-11T00:11:55.472Z,3.17
2022-12-11T00:14:22.715Z,3.80
2022-12-11T00:16:49.745Z,3.65
2022-12-11T00:19:16.843Z,4.55
2022-12-11T00:21:43.552Z,4.60
2022-12-11T00:24:10.345Z,3.67
2022-12-11T00:26:37.264Z,3.08
2022-12-11T00:29:04.109Z,3.28
2022-12-11T00:31:30.878Z,4.15
2022-12-11T00:34:02.209Z,3.35
2022-12-11T00:36:29.085Z,3.72
2022-12-11T00:38:55.858Z,4.38
2022-12-11T00:41:22.709Z,3.13
2022-12-11T00:43:49.508Z,2.92
2022-12-11T00:46:16.360Z,3.20
2022-12-11T00:48:43.201Z,2.90
2022-12-11T00:51:10.502Z,3.83
2022-12-11T00:53:37.847Z,3.42
2022-12-11T00:56:16.101Z,3.58
2022-12-11T00:58:42.905Z,3.45
2022-12-11T01:01:10.862Z,3.30
2022-12-11T01:03:37.821Z,3.63
2022-12-11T01:06:04.864Z,3.83
2022-12-11T01:08:36.758Z,3.60
2022-12-11T01:11:06.857Z,3.65
2022-12-11T01:13:33.605Z,4.47
2022-12-11T01:16:05.466Z,4.68
2022-12-11T01:18:32.189Z,5.40
2022-12-11T01:20:59.830Z,3.42
2022-12-11T01:23:26.895Z,3.90
2022-12-11T01:25:53.633Z,4.20
2022-12-11T01:28:20.385Z,3.45
2022-12-11T01:30:47.197Z,3.65
2022-12-11T01:33:14.024Z,3.60
2022-12-11T01:35:40.892Z,3.92
2022-12-11T01:38:07.631Z,4.45
2022-12-11T01:40:34.392Z,5.38
2022-12-11T01:43:02.745Z,3.42
2022-12-11T01:45:46.424Z,3.75
2022-12-11T01:48:16.309Z,3.67
2022-12-11T01:51:06.457Z,3.30
2022-12-11T01:53:42.041Z,4.85
2022-12-11T01:56:08.948Z,3.35
2022-12-11T01:58:40.403Z,3.63
2022-12-11T02:01:07.857Z,3.20
2022-12-11T02:03:34.627Z,3.38
2022-12-11T02:06:03.745Z,3.08
2022-12-11T02:08:30.454Z,3.42
2022-12-11T02:11:06.068Z,3.10
2022-12-11T02:13:49.569Z,3.08
2022-12-11T02:16:21.358Z,3.85
2022-12-11T02:19:08.232Z,3.38
2022-12-11T02:21:40.178Z,3.33
2022-12-11T02:24:25.607Z,3.80
2022-12-11T02:27:14.071Z,3.30
2022-12-11T02:30:11.443Z,4.03
2022-12-11T02:32:57.826Z,5.55
2022-12-11T02:35:39.595Z,3.13
2022-12-11T02:38:27.454Z,3.72
2022-12-11T02:40:54.795Z,3.63
2022-12-11T02:43:21.525Z,3.78
2022-12-11T02:45:48.275Z,3.55
2022-12-11T02:48:15.048Z,4.15
2022-12-11T02:50:47.297Z,3.65
2022-12-11T02:53:16.167Z,2.53
2022-12-11T02:55:42.877Z,3.25
2022-12-11T02:58:14.887Z,3.03
2022-12-11T03:00:41.607Z,3.33
2022-12-11T03:03:08.313Z,4.00
2022-12-11T03:05:37.063Z,3.53
2022-12-11T03:08:03.959Z,3.72
2022-12-11T03:10:30.791Z,2.95
2022-12-11T03:12:58.089Z,3.55
2022-12-11T03:15:31.759Z,4.25
2022-12-11T03:18:13.571Z,3.65
2022-12-11T03:20:51.089Z,3.72
2022-12-11T03:23:42.025Z,3.20
2022-12-11T03:26:10.663Z,3.15
2022-12-11T03:28:55.595Z,3.17
2022-12-11T03:31:44.252Z,4.63
2022-12-11T03:34:19.486Z,3.60
2022-12-11T03:36:46.295Z,3.60
2022-12-11T03:39:15.687Z,3.28
2022-12-11T03:41:42.414Z,3.35
2022-12-11T03:44:09.772Z,3.10
2022-12-11T03:46:39.189Z,3.00
2022-12-11T03:49:15.627Z,3.13
2022-12-11T03:51:42.393Z,3.05
2022-12-11T03:54:10.205Z,3.08
2022-12-11T03:56:38.549Z,3.72
2022-12-11T03:59:05.253Z,3.03
2022-12-11T04:01:32.029Z,3.08
2022-12-11T04:03:58.829Z,4.20
2022-12-11T04:06:25.549Z,3.20
2022-12-11T04:08:52.263Z,4.85
2022-12-11T04:11:37.060Z,4.55
2022-12-11T04:14:28.799Z,3.58
2022-12-11T04:16:55.735Z,2.88
2022-12-11T04:19:41.352Z,3.47
2022-12-11T04:22:28.437Z,3.13
2022-12-11T04:24:55.232Z,3.00
2022-12-11T04:27:40.781Z,3.50
2022-12-11T04:30:10.038Z,3.60
2022-12-11T04:32:36.884Z,3.28
2022-12-11T04:35:03.924Z,3.80
2022-12-11T04:37:30.676Z,3.67
2022-12-11T04:39:57.417Z,2.88
2022-12-11T04:42:24.221Z,3.03
2022-12-11T04:44:50.940Z,3.80
2022-12-11T04:47:18.890Z,3.40
2022-12-11T04:49:45.682Z,3.30
2022-12-11T04:52:12.708Z,2.90
2022-12-11T04:54:40.849Z,3.03
2022-12-11T04:57:07.767Z,3.20
2022-12-11T04:59:34.507Z,3.53
2022-12-11T05:02:01.403Z,3.00
2022-12-11T05:04:32.326Z,4.28
2022-12-11T05:06:59.418Z,4.03
2022-12-11T05:09:27.098Z,4.28
2022-12-11T05:11:54.017Z,4.05
2022-12-11T05:14:20.954Z,3.78
2022-12-11T05:16:47.891Z,2.92
2022-12-11T05:19:14.629Z,3.13
2022-12-11T05:21:42.227Z,3.45
2022-12-11T05:24:09.112Z,3.28
2022-12-11T05:26:35.873Z,3.55
2022-12-11T05:29:02.569Z,3.17
2022-12-11T05:31:29.379Z,3.15
2022-12-11T05:33:56.168Z,3.40
2022-12-11T05:36:30.492Z,4.38
2022-12-11T05:38:57.741Z,2.95
2022-12-11T05:41:26.211Z,3.50
2022-12-11T05:43:53.071Z,2.90
2022-12-11T05:46:21.815Z,2.65
2022-12-11T05:48:50.187Z,3.50
2022-12-11T05:51:17.149Z,3.70
2022-12-11T05:53:45.003Z,3.80
2022-12-11T05:56:14.943Z,3.63
2022-12-11T05:58:41.892Z,3.83
2022-12-11T06:01:29.573Z,4.30
2022-12-11T06:03:56.772Z,2.90
2022-12-11T06:06:23.626Z,2.83
2022-12-11T06:08:51.389Z,3.15
2022-12-11T06:11:23.572Z,3.35
2022-12-11T06:13:50.774Z,3.05
2022-12-11T06:16:17.758Z,2.83
2022-12-11T06:18:45.303Z,3.20
2022-12-11T06:21:13.459Z,2.80
2022-12-11T06:23:40.207Z,3.00
2022-12-11T06:26:07.168Z,3.20
2022-12-11T06:28:33.895Z,2.67
2022-12-11T06:31:00.924Z,2.83
2022-12-11T06:33:27.656Z,2.70
2022-12-11T06:35:54.517Z,3.30
2022-12-11T06:38:21.313Z,2.85
2022-12-11T06:40:55.966Z,2.70
2022-12-11T06:43:22.933Z,3.40
2022-12-11T06:45:49.683Z,2.85
2022-12-11T06:48:17.158Z,3.75
2022-12-11T06:50:44.396Z,4.07
2022-12-11T06:53:12.413Z,3.72
2022-12-11T06:55:39.166Z,4.68
2022-12-11T06:58:05.913Z,3.22
2022-12-11T07:00:32.613Z,3.15
2022-12-11T07:02:59.339Z,3.25
2022-12-11T07:05:26.058Z,3.30
2022-12-11T07:07:55.905Z,3.40
2022-12-11T07:10:23.182Z,3.05
2022-12-11T07:12:52.405Z,3.20
2022-12-11T07:15:20.480Z,2.92
2022-12-11T07:17:47.198Z,3.30
2022-12-11T07:20:14.563Z,2.53
2022-12-11T07:22:46.208Z,3.72
2022-12-11T07:25:16.012Z,3.05
2022-12-11T07:27:42.719Z,2.53
2022-12-11T07:30:10.722Z,2.80
2022-12-11T07:32:37.510Z,2.60
2022-12-11T07:35:04.623Z,3.15
2022-12-11T07:37:31.365Z,2.97
2022-12-11T07:39:58.079Z,3.33
2022-12-11T07:42:24.841Z,3.03
2022-12-11T07:44:52.330Z,3.47
2022-12-11T07:47:19.187Z,4.30
2022-12-11T07:49:46.566Z,2.88
2022-12-11T07:52:13.278Z,3.80
2022-12-11T07:54:40.048Z,2.70
2022-12-11T07:57:12.270Z,2.50
2022-12-11T07:59:41.797Z,3.08
2022-12-11T08:02:10.846Z,2.50
2022-12-11T08:04:37.970Z,4.13
2022-12-11T08:07:04.709Z,2.80
2022-12-11T08:09:31.457Z,2.63
2022-12-11T08:11:58.170Z,4.28
2022-12-11T08:14:24.994Z,2.78
2022-12-11T08:16:53.813Z,4.43
2022-12-11T08:19:21.820Z,2.85
2022-12-11T08:21:49.239Z,4.53
2022-12-11T08:24:20.247Z,3.42
2022-12-11T08:26:47.528Z,3.33
2022-12-11T08:29:14.736Z,3.33
2022-12-11T08:31:41.796Z,3.53
2022-12-11T08:34:08.537Z,6.05
2022-12-11T08:36:35.280Z,3.65
2022-12-11T08:39:02.088Z,2.90
2022-12-11T08:41:30.114Z,4.35
2022-12-11T08:43:57.718Z,3.30
2022-12-11T08:46:28.900Z,3.58
2022-12-11T08:48:55.843Z,3.03
2022-12-11T08:51:24.332Z,5.10
2022-12-11T08:53:53.181Z,2.97
2022-12-11T08:56:21.800Z,2.33
2022-12-11T08:58:48.856Z,3.92
2022-12-11T09:01:18.028Z,4.93
2022-12-11T09:03:44.872Z,3.15
2022-12-11T09:06:13.228Z,2.50
2022-12-11T09:08:40.327Z,2.72
2022-12-11T09:11:08.865Z,3.70
2022-12-11T09:13:35.623Z,3.20
2022-12-11T09:16:05.386Z,3.47
2022-12-11T09:18:32.243Z,2.70
2022-12-11T09:21:02.611Z,4.38
2022-12-11T09:23:29.405Z,4.20
2022-12-11T09:25:56.152Z,3.65
2022-12-11T09:28:23.846Z,3.33
2022-12-11T09:30:51.688Z,3.47
2022-12-11T09:33:19.005Z,4.78
2022-12-11T09:35:45.739Z,3.45
2022-12-11T09:38:12.518Z,3.63
2022-12-11T09:40:43.363Z,5.60
2022-12-11T09:43:34.037Z,3.25
2022-12-11T09:46:01.223Z,3.50
2022-12-11T09:48:28.834Z,3.40
2022-12-11T09:50:55.875Z,5.13
2022-12-11T09:53:34.424Z,4.13
2022-12-11T09:56:19.447Z,2.30
2022-12-11T09:59:23.419Z,3.38
2022-12-11T10:02:03.406Z,4.47
2022-12-11T10:04:45.198Z,4.47
2022-12-11T10:07:23.505Z,3.58
2022-12-11T10:09:58.533Z,3.33
2022-12-11T10:12:31.399Z,3.15
2022-12-11T10:15:23.627Z,4.82
2022-12-11T10:17:50.334Z,3.85
2022-12-11T10:20:31.792Z,5.18
2022-12-11T10:22:58.507Z,3.05
2022-12-11T10:25:28.862Z,2.50
2022-12-11T10:27:55.915Z,5.25
2022-12-11T10:30:23.827Z,2.90
2022-12-11T10:33:22.905Z,3.97
2022-12-11T10:35:57.128Z,2.88
2022-12-11T10:38:33.098Z,3.17
2022-12-11T10:41:02.689Z,3.38
2022-12-11T10:43:40.365Z,4.18
2022-12-11T10:46:12.805Z,4.97
2022-12-11T10:48:50.853Z,5.90
2022-12-11T10:51:17.964Z,2.75
2022-12-11T10:53:49.374Z,4.22
2022-12-11T10:56:16.108Z,3.25
2022-12-11T10:58:48.877Z,2.97
2022-12-11T11:01:16.343Z,5.82
2022-12-11T11:03:54.373Z,4.75
2022-12-11T11:06:23.353Z,2.65
2022-12-11T11:08:54.961Z,3.45
2022-12-11T11:11:35.235Z,6.53
2022-12-11T11:14:07.046Z,3.20
2022-12-11T11:16:36.709Z,3.85
2022-12-11T11:19:03.659Z,3.15
2022-12-11T11:21:31.914Z,5.22
2022-12-11T11:23:58.921Z,3.47
2022-12-11T11:26:38.248Z,4.70
2022-12-11T11:29:37.926Z,4.35
2022-12-11T11:32:36.982Z,3.15
2022-12-11T11:35:25.728Z,6.32
2022-12-11T11:38:06.711Z,5.13
2022-12-11T11:41:07.578Z,5.95
2022-12-11T11:43:48.319Z,4.90
2022-12-11T11:46:21.696Z,3.15
2022-12-11T11:48:58.352Z,5.35
2022-12-11T11:51:36.455Z,5.63
2022-12-11T11:54:20.037Z,3.97
2022-12-11T11:56:47.003Z,3.63
2022-12-11T11:59:36.256Z,3.20
2022-12-11T12:02:02.989Z,6.80
2022-12-11T12:04:33.743Z,7.28
2022-12-11T12:07:06.740Z,3.72
2022-12-11T12:09:59.758Z,3.78
2022-12-11T12:12:45.556Z,3.78
2022-12-11T12:15:28.773Z,7.95
2022-12-11T12:18:04.549Z,9.52
2022-12-11T12:20:39.394Z,5.68
2022-12-11T12:23:39.391Z,4.78
2022-12-11T12:26:24.240Z,4.43
2022-12-11T12:28:54.049Z,6.22
2022-12-11T12:31:27.985Z,3.90
2022-12-11T12:34:13.420Z,4.65
2022-12-11T12:37:19.099Z,6.05
2022-12-11T12:40:03.364Z,7.68
2022-12-11T12:42:43.512Z,6.63
2022-12-11T12:45:16.101Z,7.03
2022-12-11T12:47:46.725Z,6.07
2022-12-11T12:50:19.468Z,8.98
2022-12-11T12:52:46.198Z,6.15
2022-12-11T12:55:23.801Z,5.68
2022-12-11T12:57:55.680Z,6.43
2022-12-11T13:00:34.624Z,5.90
2022-12-11T13:03:15.884Z,7.38
2022-12-11T13:05:45.005Z,6.47
2022-12-11T13:08:12.613Z,7.50
2022-12-11T13:10:42.015Z,9.55
2022-12-11T13:13:32.228Z,7.00
2022-12-11T13:16:14.910Z,8.02
2022-12-11T13:18:44.644Z,7.95
2022-12-11T13:21:33.397Z,12.30
2022-12-11T13:24:12.996Z,10.73
2022-12-11T13:26:40.001Z,14.43
2022-12-11T13:29:09.641Z,11.80
2022-12-11T13:31:37.690Z,11.80
2022-12-11T13:34:14.527Z,15.05
2022-12-11T13:36:41.395Z,12.60
2022-12-11T13:39:32.576Z,9.95
2022-12-11T13:42:02.516Z,14.23
2022-12-11T13:44:39.673Z,12.38
2022-12-11T13:47:08.109Z,17.23
2022-12-11T13:49:37.167Z,9.80
2022-12-11T13:52:04.391Z,17.85
2022-12-11T13:54:32.383Z,12.82
2022-12-11T13:57:01.768Z,8.57
2022-12-11T13:59:33.894Z,9.27
2022-12-11T14:02:13.444Z,10.20
2022-12-11T14:04:40.314Z,12.02
2022-12-11T14:07:08.365Z,9.65
2022-12-11T14:09:35.115Z,8.60
2022-12-11T14:12:01.833Z,9.45
2022-12-11T14:14:41.359Z,8.45
2022-12-11T14:17:15.087Z,6.25
2022-12-11T14:19:46.787Z,6.50
2022-12-11T14:22:18.332Z,7.72
2022-12-11T14:24:53.198Z,4.90
2022-12-11T14:27:20.266Z,6.80
2022-12-11T14:29:47.166Z,7.68
2022-12-11T14:32:25.590Z,4.80
2022-12-11T14:34:52.294Z,5.28
2022-12-11T14:37:20.074Z,4.57
2022-12-11T14:40:07.608Z,5.43
2022-12-11T14:42:39.946Z,7.13
2022-12-11T14:45:08.696Z,5.85
2022-12-11T14:47:39.322Z,6.47
2022-12-11T14:50:22.090Z,5.60
2022-12-11T14:52:51.599Z,7.68
2022-12-11T14:55:20.171Z,4.38
2022-12-11T14:57:48.745Z,6.88
2022-12-11T15:00:38.897Z,8.38
2022-12-11T15:03:12.268Z,5.70
2022-12-11T15:05:58.062Z,4.93
2022-12-11T15:08:33.296Z,7.47
2022-12-11T15:11:04.725Z,3.92
2022-12-11T15:13:32.205Z,8.43
2022-12-11T15:16:00.202Z,9.25
2022-12-11T15:18:31.210Z,8.23
2022-12-11T15:21:07.045Z,9.95
2022-12-11T15:23:47.780Z,14.25
2022-12-11T15:26:15.425Z,8.23
2022-12-11T15:28:42.147Z,22.58
2022-12-11T15:31:26.371Z,13.63
2022-12-11T15:33:53.469Z,14.98
2022-12-11T15:36:29.319Z,11.93
2022-12-11T15:38:57.783Z,9.23
2022-12-11T15:41:25.377Z,16.70
2022-12-11T15:43:58.305Z,8.23
2022-12-11T15:46:26.375Z,13.30
2022-12-11T15:48:54.293Z,24.58
2022-12-11T15:51:21.059Z,14.32
2022-12-11T15:53:47.802Z,15.70
2022-12-11T15:56:17.732Z,14.32
2022-12-11T15:58:44.853Z,27.10
2022-12-11T16:01:12.193Z,16.60
2022-12-11T16:03:39.150Z,12.23
2022-12-11T16:06:06.067Z,10.05
2022-12-11T16:08:32.949Z,14.98
2022-12-11T16:10:59.764Z,11.85
2022-12-11T16:13:27.170Z,9.25
2022-12-11T16:15:54.506Z,12.32
2022-12-11T16:18:22.515Z,9.27
2022-12-11T16:20:49.821Z,10.38
2022-12-11T16:23:17.265Z,12.07
2022-12-11T16:25:44.863Z,12.05
2022-12-11T16:28:12.854Z,8.65
2022-12-11T16:30:39.635Z,8.55
2022-12-11T16:33:12.041Z,9.60
2022-12-11T16:35:39.914Z,9.50
2022-12-11T16:38:07.770Z,5.93
2022-12-11T16:40:34.534Z,9.57
2022-12-11T16:43:01.290Z,14.35
2022-12-11T16:45:29.293Z,15.50
2022-12-11T16:47:56.099Z,17.42
2022-12-11T16:50:23.676Z,6.80
2022-12-11T16:52:50.392Z,8.07
2022-12-11T16:55:21.070Z,8.90
2022-12-11T16:57:47.960Z,8.15
2022-12-11T17:00:15.405Z,7.20
2022-12-11T17:02:42.252Z,8.00
2022-12-11T17:05:09.271Z,5.68
2022-12-11T17:07:36.173Z,7.82
2022-12-11T17:10:03.297Z,4.65
2022-12-11T17:12:30.234Z,6.75
2022-12-11T17:14:58.132Z,3.42
2022-12-11T17:17:25.273Z,6.28
2022-12-11T17:19:52.105Z,6.95
2022-12-11T17:22:18.914Z,6.25
2022-12-11T17:24:45.743Z,7.00
2022-12-11T17:27:12.448Z,7.70
2022-12-11T17:29:39.280Z,4.78
2022-12-11T17:32:06.289Z,9.20
2022-12-11T17:34:37.926Z,6.50
2022-12-11T17:37:05.609Z,5.88
2022-12-11T17:39:32.361Z,7.75
2022-12-11T17:42:00.033Z,10.18
2022-12-11T17:44:28.375Z,8.15
2022-12-11T17:46:55.137Z,10.25
2022-12-11T17:49:21.853Z,12.10
2022-12-11T17:51:48.563Z,6.53
2022-12-11T17:54:15.308Z,13.15
2022-12-11T17:56:42.065Z,6.32
2022-12-11T17:59:08.811Z,13.15
2022-12-11T18:01:35.766Z,5.68
2022-12-11T18:04:02.707Z,6.97
2022-12-11T18:06:30.098Z,7.55
2022-12-11T18:08:58.186Z,11.63
2022-12-11T18:11:25.073Z,8.00
2022-12-11T18:13:52.242Z,8.23
2022-12-11T18:16:25.001Z,9.05
2022-12-11T18:18:52.288Z,11.15
2022-12-11T18:21:21.732Z,13.43
2022-12-11T18:23:49.997Z,10.18
2022-12-11T18:26:18.254Z,8.93
2022-12-11T18:28:45.205Z,12.00
2022-12-11T18:31:13.449Z,8.70
2022-12-11T18:33:41.434Z,6.95
2022-12-11T18:36:08.672Z,12.48
2022-12-11T18:38:35.603Z,11.40
2022-12-11T18:41:06.125Z,8.45
2022-12-11T18:43:34.851Z,10.63
2022-12-11T18:46:09.698Z,10.65
2022-12-11T18:48:36.663Z,8.95
2022-12-11T18:51:09.751Z,7.72
2022-12-11T18:53:36.940Z,12.35
2022-12-11T18:56:10.274Z,8.73
2022-12-11T18:58:38.116Z,12.88
2022-12-11T19:01:13.935Z,10.40
2022-12-11T19:03:41.274Z,8.52
2022-12-11T19:06:12.765Z,11.60
2022-12-11T19:08:39.621Z,8.10
2022-12-11T19:11:06.525Z,7.28
2022-12-11T19:13:33.363Z,10.50
2022-12-11T19:16:01.085Z,9.00
2022-12-11T19:18:29.555Z,10.60
2022-12-11T19:21:06.757Z,7.85
2022-12-11T19:23:35.841Z,7.60
2022-12-11T19:26:02.604Z,8.77
2022-12-11T19:28:29.998Z,9.65
2022-12-11T19:30:57.626Z,6.30
2022-12-11T19:33:24.612Z,9.07
2022-12-11T19:36:01.267Z,17.83
2022-12-11T19:38:29.759Z,9.60
2022-12-11T19:40:58.097Z,13.90
2022-12-11T19:43:25.211Z,7.80
2022-12-11T19:45:55.615Z,10.93
2022-12-11T19:48:23.611Z,10.27
2022-12-11T19:50:51.571Z,11.55
2022-12-11T19:53:18.336Z,10.82
2022-12-11T19:55:51.869Z,7.10
2022-12-11T19:58:19.133Z,10.68
2022-12-11T20:00:46.288Z,7.80
2022-12-11T20:03:14.890Z,11.82
2022-12-11T20:05:41.900Z,14.70
2022-12-11T20:08:35.596Z,7.97
2022-12-11T20:10:55.633Z,9.30
2022-12-11T20:13:22.485Z,10.18
2022-12-11T20:15:49.320Z,8.38
2022-12-11T20:18:18.690Z,10.38
2022-12-11T20:20:46.991Z,9.13
2022-12-11T20:23:13.710Z,9.70
2022-12-11T20:25:40.447Z,9.93
2022-12-11T20:28:07.163Z,10.88
2022-12-11T20:30:34.012Z,12.20
2022-12-11T20:33:00.754Z,9.35
2022-12-11T20:35:29.266Z,9.63
2022-12-11T20:37:56.106Z,9.35
2022-12-11T20:40:22.970Z,6.13
2022-12-11T20:42:49.731Z,12.18
2022-12-11T20:45:16.549Z,7.15
2022-12-11T20:47:43.266Z,10.50
2022-12-11T20:50:11.139Z,8.80
2022-12-11T20:52:37.978Z,8.35
2022-12-11T20:55:05.114Z,8.18
2022-12-11T20:57:31.824Z,6.65
2022-12-11T20:59:59.537Z,9.13
2022-12-11T21:02:27.216Z,6.72
2022-12-11T21:04:54.239Z,10.38
2022-12-11T21:07:21.088Z,10.18
2022-12-11T21:09:47.797Z,9.40
2022-12-11T21:12:14.501Z,5.95
2022-12-11T21:14:42.238Z,6.60
2022-12-11T21:17:08.951Z,7.57
2022-12-11T21:19:36.036Z,9.35
2022-12-11T21:22:02.993Z,8.23
2022-12-11T21:24:30.228Z,8.25
2022-12-11T21:26:58.225Z,11.30
2022-12-11T21:29:25.692Z,7.55
2022-12-11T21:31:52.570Z,9.07
2022-12-11T21:34:25.035Z,7.95
2022-12-11T21:36:56.532Z,8.65
2022-12-11T21:39:29.299Z,7.10
2022-12-11T21:41:58.687Z,6.68
2022-12-11T21:45:31.295Z,6.32
2022-12-11T21:47:12.685Z,14.05
2022-12-11T21:49:39.405Z,6.35
2022-12-11T21:52:06.233Z,8.73
2022-12-11T21:54:32.949Z,9.23
2022-12-11T21:57:01.323Z,7.70
2022-12-11T21:59:29.519Z,5.45
2022-12-11T22:01:56.899Z,9.55
2022-12-11T22:04:23.726Z,5.30
2022-12-11T22:06:50.452Z,7.20
2022-12-11T22:09:18.002Z,8.82
2022-12-11T22:11:45.396Z,8.45
2022-12-11T22:14:13.319Z,7.75
2022-12-11T22:16:40.066Z,6.22
2022-12-11T22:19:06.804Z,8.48
2022-12-11T22:21:33.578Z,5.72
2022-12-11T22:24:01.603Z,5.88
2022-12-11T22:26:29.310Z,5.32
2022-12-11T22:28:56.906Z,5.40
2022-12-11T22:31:24.499Z,4.50
2022-12-11T22:33:53.608Z,4.45
2022-12-11T22:36:20.641Z,5.97
2022-12-11T22:38:47.498Z,6.05
2022-12-11T22:41:25.226Z,3.92
2022-12-11T22:43:52.092Z,5.63
2022-12-11T22:46:19.795Z,4.88
2022-12-11T22:48:46.659Z,4.97
2022-12-11T22:51:13.444Z,4.32
2022-12-11T22:53:40.159Z,4.97
2022-12-11T22:56:07.676Z,4.95
2022-12-11T22:58:34.455Z,5.03
2022-12-11T23:01:02.088Z,6.05
2022-12-11T23:03:29.435Z,5.82
2022-12-11T23:05:58.751Z,3.45
2022-12-11T23:08:27.552Z,6.00
2022-12-11T23:10:54.330Z,5.03
2022-12-11T23:13:21.054Z,4.97
2022-12-11T23:15:47.758Z,5.80
2022-12-11T23:18:14.488Z,4.30
2022-12-11T23:20:41.265Z,4.75
2022-12-11T23:23:08.471Z,4.57
2022-12-11T23:25:35.230Z,5.47
2022-12-11T23:28:02.240Z,4.25
2022-12-11T23:30:29.834Z,4.85
2022-12-11T23:32:57.211Z,6.18
2022-12-11T23:35:23.921Z,4.60
2022-12-11T23:37:50.676Z,4.72
2022-12-11T23:40:17.373Z,5.00
2022-12-11T23:42:44.102Z,4.78
2022-12-11T23:45:11.314Z,5.20
2022-12-11T23:47:38.338Z,3.88
2022-12-11T23:50:05.542Z,5.65
2022-12-11T23:52:32.268Z,4.38
2022-12-11T23:54:59.513Z,4.47
2022-12-11T23:57:26.273Z,4.53
2022-12-11T23:59:53.000Z,7.57
